sensor_id;sensor_type;location;lat;lon;timestamp;P1;durP1;ratioP1;P2;durP2;ratioP2
65822;SDS011;52585;47.566;19.056;2022-12-29T00:02:21;10.80;;;8.00;;
65822;SDS011;52585;47.566;19.056;2022-12-29T00:04:46;11.90;;;8.50;;
65822;SDS011;52585;47.566;19.056;2022-12-29T00:09:04;11.90;;;6.60;;
65822;SDS011;52585;47.566;19.056;2022-12-29T00:11:30;7.80;;;6.50;;
65822;SDS011;52585;47.566;19.056;2022-12-29T00:13:56;8.60;;;6.30;;
65822;SDS011;52585;47.566;19.056;2022-12-29T00:16:42;7.30;;;5.60;;
65822;SDS011;52585;47.566;19.056;2022-12-29T00:19:10;9.30;;;6.10;;
65822;SDS011;52585;47.566;19.056;2022-12-29T00:21:57;8.00;;;5.80;;
65822;SDS011;52585;47.566;19.056;2022-12-29T00:24:45;7.70;;;5.60;;
65822;SDS011;52585;47.566;19.056;2022-12-29T00:27:30;10.00;;;6.70;;
65822;SDS011;52585;47.566;19.056;2022-12-29T00:30:18;7.40;;;6.00;;
65822;SDS011;52585;47.566;19.056;2022-12-29T00:33:15;7.20;;;5.70;;
65822;SDS011;52585;47.566;19.056;2022-12-29T00:39:09;9.80;;;6.20;;
65822;SDS011;52585;47.566;19.056;2022-12-29T00:41:56;6.80;;;5.60;;
65822;SDS011;52585;47.566;19.056;2022-12-29T00:45:04;6.10;;;5.00;;
65822;SDS011;52585;47.566;19.056;2022-12-29T00:47:30;8.80;;;6.10;;
65822;SDS011;52585;47.566;19.056;2022-12-29T00:49:56;7.90;;;6.20;;
65822;SDS011;52585;47.566;19.056;2022-12-29T00:52:21;8.50;;;6.20;;
65822;SDS011;52585;47.566;19.056;2022-12-29T00:54:47;8.90;;;5.80;;
65822;SDS011;52585;47.566;19.056;2022-12-29T00:57:12;9.40;;;6.50;;
65822;SDS011;52585;47.566;19.056;2022-12-29T00:59:40;7.80;;;6.10;;
65822;SDS011;52585;47.566;19.056;2022-12-29T01:02:07;7.80;;;6.60;;
65822;SDS011;52585;47.566;19.056;2022-12-29T01:04:33;9.00;;;6.00;;
65822;SDS011;52585;47.566;19.056;2022-12-29T01:06:59;7.80;;;6.10;;
65822;SDS011;52585;47.566;19.056;2022-12-29T01:09:25;7.20;;;5.90;;
65822;SDS011;52585;47.566;19.056;2022-12-29T01:12:10;8.10;;;6.10;;
65822;SDS011;52585;47.566;19.056;2022-12-29T01:14:37;8.00;;;6.40;;
65822;SDS011;52585;47.566;19.056;2022-12-29T01:17:03;9.10;;;6.00;;
65822;SDS011;52585;47.566;19.056;2022-12-29T01:19:29;6.00;;;5.00;;
65822;SDS011;52585;47.566;19.056;2022-12-29T01:21:55;11.20;;;7.90;;
65822;SDS011;52585;47.566;19.056;2022-12-29T01:24:21;13.40;;;8.60;;
65822;SDS011;52585;47.566;19.056;2022-12-29T01:26:48;9.40;;;7.30;;
65822;SDS011;52585;47.566;19.056;2022-12-29T01:29:14;9.20;;;6.20;;
65822;SDS011;52585;47.566;19.056;2022-12-29T01:31:40;7.40;;;6.50;;
65822;SDS011;52585;47.566;19.056;2022-12-29T01:34:06;7.40;;;6.00;;
65822;SDS011;52585;47.566;19.056;2022-12-29T01:36:32;7.70;;;6.00;;
65822;SDS011;52585;47.566;19.056;2022-12-29T01:38:59;6.40;;;5.40;;
65822;SDS011;52585;47.566;19.056;2022-12-29T01:41:24;7.10;;;5.70;;
65822;SDS011;52585;47.566;19.056;2022-12-29T01:43:53;10.40;;;6.60;;
65822;SDS011;52585;47.566;19.056;2022-12-29T01:46:39;9.90;;;7.10;;
65822;SDS011;52585;47.566;19.056;2022-12-29T01:51:35;11.10;;;7.20;;
65822;SDS011;52585;47.566;19.056;2022-12-29T01:54:10;9.70;;;7.00;;
65822;SDS011;52585;47.566;19.056;2022-12-29T01:56:39;10.30;;;7.60;;
65822;SDS011;52585;47.566;19.056;2022-12-29T01:59:08;10.20;;;7.70;;
65822;SDS011;52585;47.566;19.056;2022-12-29T02:01:39;8.60;;;6.60;;
65822;SDS011;52585;47.566;19.056;2022-12-29T02:04:05;9.10;;;6.80;;
65822;SDS011;52585;47.566;19.056;2022-12-29T02:06:45;13.10;;;9.70;;
65822;SDS011;52585;47.566;19.056;2022-12-29T02:09:16;15.90;;;10.30;;
65822;SDS011;52585;47.566;19.056;2022-12-29T02:11:42;14.00;;;8.60;;
65822;SDS011;52585;47.566;19.056;2022-12-29T02:14:10;10.70;;;7.20;;
65822;SDS011;52585;47.566;19.056;2022-12-29T02:22:45;9.60;;;7.00;;
65822;SDS011;52585;47.566;19.056;2022-12-29T02:31:39;9.20;;;6.40;;
65822;SDS011;52585;47.566;19.056;2022-12-29T02:37:03;9.70;;;6.70;;
65822;SDS011;52585;47.566;19.056;2022-12-29T02:39:50;8.00;;;6.40;;
65822;SDS011;52585;47.566;19.056;2022-12-29T02:42:35;8.70;;;6.80;;
65822;SDS011;52585;47.566;19.056;2022-12-29T02:45:23;9.50;;;6.60;;
65822;SDS011;52585;47.566;19.056;2022-12-29T02:53:40;13.00;;;8.30;;
65822;SDS011;52585;47.566;19.056;2022-12-29T02:56:25;18.70;;;9.90;;
65822;SDS011;52585;47.566;19.056;2022-12-29T02:58:51;11.90;;;8.00;;
65822;SDS011;52585;47.566;19.056;2022-12-29T03:07:32;8.70;;;6.50;;
65822;SDS011;52585;47.566;19.056;2022-12-29T03:16:11;8.30;;;6.20;;
65822;SDS011;52585;47.566;19.056;2022-12-29T03:18:58;8.00;;;6.50;;
65822;SDS011;52585;47.566;19.056;2022-12-29T03:24:44;8.20;;;6.40;;
65822;SDS011;52585;47.566;19.056;2022-12-29T03:27:17;8.70;;;6.60;;
65822;SDS011;52585;47.566;19.056;2022-12-29T03:29:50;7.40;;;6.40;;
65822;SDS011;52585;47.566;19.056;2022-12-29T03:32:27;7.40;;;6.40;;
65822;SDS011;52585;47.566;19.056;2022-12-29T03:34:57;12.80;;;7.60;;
65822;SDS011;52585;47.566;19.056;2022-12-29T03:37:29;14.80;;;9.60;;
65822;SDS011;52585;47.566;19.056;2022-12-29T03:39:59;16.90;;;10.50;;
65822;SDS011;52585;47.566;19.056;2022-12-29T03:42:26;11.00;;;8.80;;
65822;SDS011;52585;47.566;19.056;2022-12-29T03:44:56;10.30;;;7.50;;
65822;SDS011;52585;47.566;19.056;2022-12-29T03:47:23;11.20;;;7.70;;
65822;SDS011;52585;47.566;19.056;2022-12-29T03:49:50;10.20;;;7.60;;
65822;SDS011;52585;47.566;19.056;2022-12-29T03:52:17;9.60;;;6.70;;
65822;SDS011;52585;47.566;19.056;2022-12-29T03:54:43;10.50;;;7.60;;
65822;SDS011;52585;47.566;19.056;2022-12-29T03:57:10;12.00;;;7.70;;
65822;SDS011;52585;47.566;19.056;2022-12-29T03:59:36;8.90;;;6.80;;
65822;SDS011;52585;47.566;19.056;2022-12-29T04:02:02;8.80;;;6.60;;
65822;SDS011;52585;47.566;19.056;2022-12-29T04:04:27;9.50;;;7.10;;
65822;SDS011;52585;47.566;19.056;2022-12-29T04:06:53;8.20;;;6.60;;
65822;SDS011;52585;47.566;19.056;2022-12-29T04:09:19;11.50;;;6.80;;
65822;SDS011;52585;47.566;19.056;2022-12-29T04:11:44;7.60;;;6.60;;
65822;SDS011;52585;47.566;19.056;2022-12-29T04:14:10;8.00;;;6.80;;
65822;SDS011;52585;47.566;19.056;2022-12-29T04:16:35;13.50;;;9.10;;
65822;SDS011;52585;47.566;19.056;2022-12-29T04:19:05;16.80;;;9.90;;
65822;SDS011;52585;47.566;19.056;2022-12-29T04:21:32;11.60;;;8.60;;
65822;SDS011;52585;47.566;19.056;2022-12-29T04:23:58;10.10;;;7.50;;
65822;SDS011;52585;47.566;19.056;2022-12-29T04:26:23;11.40;;;6.90;;
65822;SDS011;52585;47.566;19.056;2022-12-29T04:28:49;10.60;;;7.20;;
65822;SDS011;52585;47.566;19.056;2022-12-29T04:31:14;10.90;;;7.00;;
65822;SDS011;52585;47.566;19.056;2022-12-29T04:33:40;9.70;;;7.10;;
65822;SDS011;52585;47.566;19.056;2022-12-29T04:36:06;11.10;;;6.90;;
65822;SDS011;52585;47.566;19.056;2022-12-29T04:38:31;9.80;;;6.90;;
65822;SDS011;52585;47.566;19.056;2022-12-29T04:40:59;9.30;;;6.60;;
65822;SDS011;52585;47.566;19.056;2022-12-29T04:43:26;10.30;;;7.80;;
65822;SDS011;52585;47.566;19.056;2022-12-29T04:45:52;10.50;;;7.40;;
65822;SDS011;52585;47.566;19.056;2022-12-29T04:48:17;9.40;;;7.40;;
65822;SDS011;52585;47.566;19.056;2022-12-29T04:50:43;10.00;;;6.90;;
65822;SDS011;52585;47.566;19.056;2022-12-29T04:53:12;9.00;;;6.20;;
65822;SDS011;52585;47.566;19.056;2022-12-29T04:55:37;15.30;;;9.90;;
65822;SDS011;52585;47.566;19.056;2022-12-29T04:58:03;16.40;;;10.60;;
65822;SDS011;52585;47.566;19.056;2022-12-29T05:00:29;15.30;;;9.80;;
65822;SDS011;52585;47.566;19.056;2022-12-29T05:02:54;12.20;;;8.00;;
65822;SDS011;52585;47.566;19.056;2022-12-29T05:05:20;9.90;;;7.50;;
65822;SDS011;52585;47.566;19.056;2022-12-29T05:07:45;11.50;;;7.80;;
65822;SDS011;52585;47.566;19.056;2022-12-29T05:10:11;12.70;;;8.20;;
65822;SDS011;52585;47.566;19.056;2022-12-29T05:12:37;11.40;;;8.20;;
65822;SDS011;52585;47.566;19.056;2022-12-29T05:15:06;16.20;;;8.50;;
65822;SDS011;52585;47.566;19.056;2022-12-29T05:17:33;11.80;;;8.20;;
65822;SDS011;52585;47.566;19.056;2022-12-29T05:19:58;13.60;;;8.80;;
65822;SDS011;52585;47.566;19.056;2022-12-29T05:22:24;13.30;;;8.30;;
65822;SDS011;52585;47.566;19.056;2022-12-29T05:24:50;9.30;;;7.40;;
65822;SDS011;52585;47.566;19.056;2022-12-29T05:27:16;11.80;;;8.10;;
65822;SDS011;52585;47.566;19.056;2022-12-29T05:29:41;11.60;;;7.60;;
65822;SDS011;52585;47.566;19.056;2022-12-29T05:32:08;14.70;;;9.50;;
65822;SDS011;52585;47.566;19.056;2022-12-29T05:34:34;19.40;;;12.10;;
65822;SDS011;52585;47.566;19.056;2022-12-29T05:37:00;17.90;;;9.30;;
65822;SDS011;52585;47.566;19.056;2022-12-29T05:39:27;11.50;;;7.60;;
65822;SDS011;52585;47.566;19.056;2022-12-29T05:41:53;14.70;;;8.60;;
65822;SDS011;52585;47.566;19.056;2022-12-29T05:44:18;11.20;;;6.90;;
65822;SDS011;52585;47.566;19.056;2022-12-29T05:46:44;11.20;;;6.80;;
65822;SDS011;52585;47.566;19.056;2022-12-29T05:49:09;9.50;;;6.70;;
65822;SDS011;52585;47.566;19.056;2022-12-29T05:51:35;10.90;;;7.00;;
65822;SDS011;52585;47.566;19.056;2022-12-29T05:54:01;9.20;;;6.70;;
65822;SDS011;52585;47.566;19.056;2022-12-29T05:56:26;9.30;;;6.80;;
65822;SDS011;52585;47.566;19.056;2022-12-29T05:58:52;7.80;;;6.60;;
65822;SDS011;52585;47.566;19.056;2022-12-29T06:01:17;8.90;;;6.60;;
65822;SDS011;52585;47.566;19.056;2022-12-29T06:03:43;11.70;;;6.50;;
65822;SDS011;52585;47.566;19.056;2022-12-29T06:06:08;13.80;;;8.90;;
65822;SDS011;52585;47.566;19.056;2022-12-29T06:08:34;15.30;;;9.60;;
65822;SDS011;52585;47.566;19.056;2022-12-29T06:10:59;12.90;;;8.60;;
65822;SDS011;52585;47.566;19.056;2022-12-29T06:13:25;10.80;;;7.20;;
65822;SDS011;52585;47.566;19.056;2022-12-29T06:15:51;11.70;;;6.90;;
65822;SDS011;52585;47.566;19.056;2022-12-29T06:18:16;8.10;;;6.70;;
65822;SDS011;52585;47.566;19.056;2022-12-29T06:20:42;9.00;;;7.10;;
65822;SDS011;52585;47.566;19.056;2022-12-29T06:23:07;12.50;;;7.10;;
65822;SDS011;52585;47.566;19.056;2022-12-29T06:25:33;10.00;;;7.20;;
65822;SDS011;52585;47.566;19.056;2022-12-29T06:28:01;8.90;;;6.50;;
65822;SDS011;52585;47.566;19.056;2022-12-29T06:30:28;10.50;;;7.30;;
65822;SDS011;52585;47.566;19.056;2022-12-29T06:32:53;8.40;;;5.70;;
65822;SDS011;52585;47.566;19.056;2022-12-29T06:35:20;10.20;;;6.90;;
65822;SDS011;52585;47.566;19.056;2022-12-29T06:37:49;17.00;;;9.70;;
65822;SDS011;52585;47.566;19.056;2022-12-29T06:40:15;15.40;;;10.10;;
65822;SDS011;52585;47.566;19.056;2022-12-29T06:42:40;15.00;;;10.20;;
65822;SDS011;52585;47.566;19.056;2022-12-29T06:45:06;13.70;;;10.60;;
65822;SDS011;52585;47.566;19.056;2022-12-29T06:47:33;15.20;;;10.20;;
65822;SDS011;52585;47.566;19.056;2022-12-29T06:49:59;12.80;;;9.30;;
65822;SDS011;52585;47.566;19.056;2022-12-29T06:52:25;15.60;;;9.80;;
65822;SDS011;52585;47.566;19.056;2022-12-29T06:54:51;16.80;;;11.00;;
65822;SDS011;52585;47.566;19.056;2022-12-29T06:57:17;17.80;;;10.90;;
65822;SDS011;52585;47.566;19.056;2022-12-29T06:59:42;28.20;;;9.80;;
65822;SDS011;52585;47.566;19.056;2022-12-29T07:02:10;16.70;;;10.90;;
65822;SDS011;52585;47.566;19.056;2022-12-29T07:04:36;14.60;;;10.70;;
65822;SDS011;52585;47.566;19.056;2022-12-29T07:07:02;18.70;;;11.20;;
65822;SDS011;52585;47.566;19.056;2022-12-29T07:09:27;16.90;;;11.30;;
65822;SDS011;52585;47.566;19.056;2022-12-29T07:11:53;27.40;;;13.80;;
65822;SDS011;52585;47.566;19.056;2022-12-29T07:14:19;25.90;;;15.40;;
65822;SDS011;52585;47.566;19.056;2022-12-29T07:16:44;23.10;;;13.40;;
65822;SDS011;52585;47.566;19.056;2022-12-29T07:19:10;26.20;;;12.10;;
65822;SDS011;52585;47.566;19.056;2022-12-29T07:21:35;14.60;;;10.20;;
65822;SDS011;52585;47.566;19.056;2022-12-29T07:24:01;15.10;;;10.40;;
65822;SDS011;52585;47.566;19.056;2022-12-29T07:26:26;14.90;;;9.40;;
65822;SDS011;52585;47.566;19.056;2022-12-29T07:28:52;15.20;;;8.70;;
65822;SDS011;52585;47.566;19.056;2022-12-29T07:31:20;15.20;;;9.40;;
65822;SDS011;52585;47.566;19.056;2022-12-29T07:33:48;14.70;;;9.30;;
65822;SDS011;52585;47.566;19.056;2022-12-29T07:36:15;13.80;;;9.40;;
65822;SDS011;52585;47.566;19.056;2022-12-29T07:38:42;13.50;;;9.20;;
65822;SDS011;52585;47.566;19.056;2022-12-29T07:41:08;18.50;;;12.10;;
65822;SDS011;52585;47.566;19.056;2022-12-29T07:43:34;16.80;;;11.30;;
65822;SDS011;52585;47.566;19.056;2022-12-29T07:46:00;18.10;;;11.00;;
65822;SDS011;52585;47.566;19.056;2022-12-29T07:48:25;12.80;;;8.90;;
65822;SDS011;52585;47.566;19.056;2022-12-29T07:50:52;13.10;;;9.80;;
65822;SDS011;52585;47.566;19.056;2022-12-29T07:53:18;12.40;;;9.10;;
65822;SDS011;52585;47.566;19.056;2022-12-29T07:55:44;12.50;;;9.50;;
65822;SDS011;52585;47.566;19.056;2022-12-29T07:58:10;11.30;;;8.90;;
65822;SDS011;52585;47.566;19.056;2022-12-29T08:00:35;14.40;;;9.30;;
65822;SDS011;52585;47.566;19.056;2022-12-29T08:03:03;13.30;;;9.30;;
65822;SDS011;52585;47.566;19.056;2022-12-29T08:05:30;14.20;;;9.80;;
65822;SDS011;52585;47.566;19.056;2022-12-29T08:07:57;13.10;;;9.50;;
65822;SDS011;52585;47.566;19.056;2022-12-29T08:10:24;23.90;;;12.70;;
65822;SDS011;52585;47.566;19.056;2022-12-29T08:12:49;21.60;;;12.90;;
65822;SDS011;52585;47.566;19.056;2022-12-29T08:15:15;18.30;;;12.40;;
65822;SDS011;52585;47.566;19.056;2022-12-29T08:17:41;16.00;;;11.00;;
65822;SDS011;52585;47.566;19.056;2022-12-29T08:20:07;14.60;;;9.40;;
65822;SDS011;52585;47.566;19.056;2022-12-29T08:22:33;14.40;;;10.00;;
65822;SDS011;52585;47.566;19.056;2022-12-29T08:24:59;12.90;;;9.40;;
65822;SDS011;52585;47.566;19.056;2022-12-29T08:27:25;13.60;;;9.40;;
65822;SDS011;52585;47.566;19.056;2022-12-29T08:29:51;14.30;;;9.80;;
65822;SDS011;52585;47.566;19.056;2022-12-29T08:32:17;14.80;;;9.80;;
65822;SDS011;52585;47.566;19.056;2022-12-29T08:34:43;14.20;;;9.80;;
65822;SDS011;52585;47.566;19.056;2022-12-29T08:37:08;15.70;;;9.80;;
65822;SDS011;52585;47.566;19.056;2022-12-29T08:39:34;15.40;;;11.00;;
65822;SDS011;52585;47.566;19.056;2022-12-29T08:42:00;23.20;;;14.40;;
65822;SDS011;52585;47.566;19.056;2022-12-29T08:44:25;30.10;;;12.90;;
65822;SDS011;52585;47.566;19.056;2022-12-29T08:46:51;17.00;;;10.70;;
65822;SDS011;52585;47.566;19.056;2022-12-29T08:49:16;13.70;;;9.20;;
65822;SDS011;52585;47.566;19.056;2022-12-29T08:51:42;13.80;;;9.90;;
65822;SDS011;52585;47.566;19.056;2022-12-29T08:54:08;14.30;;;10.40;;
65822;SDS011;52585;47.566;19.056;2022-12-29T08:56:33;14.60;;;10.70;;
65822;SDS011;52585;47.566;19.056;2022-12-29T08:58:59;15.20;;;10.00;;
65822;SDS011;52585;47.566;19.056;2022-12-29T09:01:24;13.20;;;9.20;;
65822;SDS011;52585;47.566;19.056;2022-12-29T09:03:50;14.40;;;9.90;;
65822;SDS011;52585;47.566;19.056;2022-12-29T09:06:17;13.30;;;9.60;;
65822;SDS011;52585;47.566;19.056;2022-12-29T09:08:43;13.70;;;9.80;;
65822;SDS011;52585;47.566;19.056;2022-12-29T09:11:21;19.80;;;12.90;;
65822;SDS011;52585;47.566;19.056;2022-12-29T09:13:49;20.30;;;13.40;;
65822;SDS011;52585;47.566;19.056;2022-12-29T09:16:16;17.30;;;12.70;;
65822;SDS011;52585;47.566;19.056;2022-12-29T09:18:43;17.50;;;10.80;;
65822;SDS011;52585;47.566;19.056;2022-12-29T09:21:10;14.80;;;10.40;;
65822;SDS011;52585;47.566;19.056;2022-12-29T09:23:36;13.10;;;10.20;;
65822;SDS011;52585;47.566;19.056;2022-12-29T09:26:03;15.30;;;10.40;;
65822;SDS011;52585;47.566;19.056;2022-12-29T09:28:29;14.20;;;10.70;;
65822;SDS011;52585;47.566;19.056;2022-12-29T09:30:56;14.20;;;10.40;;
65822;SDS011;52585;47.566;19.056;2022-12-29T09:33:23;13.20;;;9.50;;
65822;SDS011;52585;47.566;19.056;2022-12-29T09:35:54;13.40;;;10.00;;
65822;SDS011;52585;47.566;19.056;2022-12-29T09:38:21;13.60;;;9.50;;
65822;SDS011;52585;47.566;19.056;2022-12-29T09:40:53;18.10;;;12.20;;
65822;SDS011;52585;47.566;19.056;2022-12-29T09:46:28;17.50;;;11.30;;
65822;SDS011;52585;47.566;19.056;2022-12-29T09:49:12;12.40;;;9.90;;
65822;SDS011;52585;47.566;19.056;2022-12-29T09:52:13;14.30;;;10.40;;
65822;SDS011;52585;47.566;19.056;2022-12-29T09:54:59;14.70;;;9.20;;
65822;SDS011;52585;47.566;19.056;2022-12-29T10:00:14;16.20;;;10.00;;
65822;SDS011;52585;47.566;19.056;2022-12-29T10:02:55;15.80;;;9.80;;
65822;SDS011;52585;47.566;19.056;2022-12-29T10:08:56;12.20;;;9.50;;
65822;SDS011;52585;47.566;19.056;2022-12-29T10:23:43;14.90;;;10.10;;
65822;SDS011;52585;47.566;19.056;2022-12-29T10:26:17;15.60;;;10.60;;
65822;SDS011;52585;47.566;19.056;2022-12-29T10:28:49;16.20;;;10.70;;
65822;SDS011;52585;47.566;19.056;2022-12-29T10:31:46;15.70;;;10.80;;
65822;SDS011;52585;47.566;19.056;2022-12-29T10:34:29;13.80;;;9.70;;
65822;SDS011;52585;47.566;19.056;2022-12-29T10:37:20;12.10;;;9.80;;
65822;SDS011;52585;47.566;19.056;2022-12-29T10:39:53;14.50;;;10.20;;
65822;SDS011;52585;47.566;19.056;2022-12-29T10:42:41;11.40;;;9.60;;
65822;SDS011;52585;47.566;19.056;2022-12-29T10:45:13;18.20;;;13.40;;
65822;SDS011;52585;47.566;19.056;2022-12-29T10:47:55;22.80;;;14.70;;
65822;SDS011;52585;47.566;19.056;2022-12-29T10:50:30;18.10;;;12.40;;
65822;SDS011;52585;47.566;19.056;2022-12-29T10:53:02;15.60;;;11.30;;
65822;SDS011;52585;47.566;19.056;2022-12-29T10:55:33;13.80;;;10.00;;
65822;SDS011;52585;47.566;19.056;2022-12-29T10:58:05;15.00;;;10.30;;
65822;SDS011;52585;47.566;19.056;2022-12-29T11:00:33;13.50;;;10.40;;
65822;SDS011;52585;47.566;19.056;2022-12-29T11:06:09;12.80;;;9.70;;
65822;SDS011;52585;47.566;19.056;2022-12-29T11:08:56;13.40;;;9.80;;
65822;SDS011;52585;47.566;19.056;2022-12-29T11:11:32;14.90;;;10.80;;
65822;SDS011;52585;47.566;19.056;2022-12-29T11:17:00;12.50;;;9.80;;
65822;SDS011;52585;47.566;19.056;2022-12-29T11:19:31;20.20;;;12.60;;
65822;SDS011;52585;47.566;19.056;2022-12-29T11:22:23;17.20;;;12.70;;
65822;SDS011;52585;47.566;19.056;2022-12-29T11:24:53;15.10;;;11.70;;
65822;SDS011;52585;47.566;19.056;2022-12-29T11:27:29;19.30;;;12.00;;
65822;SDS011;52585;47.566;19.056;2022-12-29T11:29:55;18.60;;;11.50;;
65822;SDS011;52585;47.566;19.056;2022-12-29T11:32:23;16.30;;;11.90;;
65822;SDS011;52585;47.566;19.056;2022-12-29T11:34:51;16.90;;;12.20;;
65822;SDS011;52585;47.566;19.056;2022-12-29T11:37:40;17.40;;;12.10;;
65822;SDS011;52585;47.566;19.056;2022-12-29T11:40:23;15.00;;;11.70;;
65822;SDS011;52585;47.566;19.056;2022-12-29T11:42:55;15.30;;;11.70;;
65822;SDS011;52585;47.566;19.056;2022-12-29T11:45:26;18.10;;;12.80;;
65822;SDS011;52585;47.566;19.056;2022-12-29T11:50:41;18.40;;;12.40;;
65822;SDS011;52585;47.566;19.056;2022-12-29T11:56:09;17.60;;;12.00;;
65822;SDS011;52585;47.566;19.056;2022-12-29T11:58:40;18.40;;;13.20;;
65822;SDS011;52585;47.566;19.056;2022-12-29T12:01:22;20.30;;;12.40;;
65822;SDS011;52585;47.566;19.056;2022-12-29T12:04:11;16.30;;;12.00;;
65822;SDS011;52585;47.566;19.056;2022-12-29T12:07:17;16.10;;;12.50;;
65822;SDS011;52585;47.566;19.056;2022-12-29T12:09:58;18.00;;;13.10;;
65822;SDS011;52585;47.566;19.056;2022-12-29T12:12:35;15.10;;;11.50;;
65822;SDS011;52585;47.566;19.056;2022-12-29T12:15:21;15.90;;;12.10;;
65822;SDS011;52585;47.566;19.056;2022-12-29T12:29:32;21.70;;;13.80;;
65822;SDS011;52585;47.566;19.056;2022-12-29T12:32:09;18.70;;;12.80;;
65822;SDS011;52585;47.566;19.056;2022-12-29T12:34:39;14.90;;;12.20;;
65822;SDS011;52585;47.566;19.056;2022-12-29T12:43:06;22.60;;;13.20;;
65822;SDS011;52585;47.566;19.056;2022-12-29T12:55:37;17.20;;;12.30;;
65822;SDS011;52585;47.566;19.056;2022-12-29T13:20:26;14.00;;;10.50;;
65822;SDS011;52585;47.566;19.056;2022-12-29T13:26:20;14.50;;;11.00;;
65822;SDS011;52585;47.566;19.056;2022-12-29T13:28:58;11.00;;;9.00;;
65822;SDS011;52585;47.566;19.056;2022-12-29T13:31:46;14.20;;;10.40;;
65822;SDS011;52585;47.566;19.056;2022-12-29T13:37:09;14.40;;;10.80;;
65822;SDS011;52585;47.566;19.056;2022-12-29T13:39:51;15.40;;;12.00;;
65822;SDS011;52585;47.566;19.056;2022-12-29T13:42:23;15.70;;;11.50;;
65822;SDS011;52585;47.566;19.056;2022-12-29T13:44:59;15.10;;;11.70;;
65822;SDS011;52585;47.566;19.056;2022-12-29T13:49:59;16.80;;;12.00;;
65822;SDS011;52585;47.566;19.056;2022-12-29T13:55:28;19.30;;;14.90;;
65822;SDS011;52585;47.566;19.056;2022-12-29T14:00:32;19.60;;;14.00;;
65822;SDS011;52585;47.566;19.056;2022-12-29T14:03:12;19.20;;;13.00;;
65822;SDS011;52585;47.566;19.056;2022-12-29T14:06:15;16.10;;;11.90;;
65822;SDS011;52585;47.566;19.056;2022-12-29T14:08:46;17.20;;;12.10;;
65822;SDS011;52585;47.566;19.056;2022-12-29T14:11:15;15.80;;;11.90;;
65822;SDS011;52585;47.566;19.056;2022-12-29T14:13:45;16.40;;;12.00;;
65822;SDS011;52585;47.566;19.056;2022-12-29T14:16:32;17.30;;;12.00;;
65822;SDS011;52585;47.566;19.056;2022-12-29T14:21:40;13.40;;;11.10;;
65822;SDS011;52585;47.566;19.056;2022-12-29T14:27:52;16.10;;;11.50;;
65822;SDS011;52585;47.566;19.056;2022-12-29T14:29:49;15.90;;;11.40;;
65822;SDS011;52585;47.566;19.056;2022-12-29T14:37:33;20.40;;;14.30;;
65822;SDS011;52585;47.566;19.056;2022-12-29T14:40:12;21.30;;;15.20;;
65822;SDS011;52585;47.566;19.056;2022-12-29T14:42:53;20.50;;;14.40;;
65822;SDS011;52585;47.566;19.056;2022-12-29T14:45:28;17.90;;;13.30;;
65822;SDS011;52585;47.566;19.056;2022-12-29T14:47:55;13.50;;;11.00;;
65822;SDS011;52585;47.566;19.056;2022-12-29T14:50:26;14.70;;;11.80;;
65822;SDS011;52585;47.566;19.056;2022-12-29T14:56:12;15.10;;;10.50;;
65822;SDS011;52585;47.566;19.056;2022-12-29T15:01:47;13.80;;;10.40;;
65822;SDS011;52585;47.566;19.056;2022-12-29T15:04:20;13.00;;;10.50;;
65822;SDS011;52585;47.566;19.056;2022-12-29T15:06:50;14.40;;;11.20;;
65822;SDS011;52585;47.566;19.056;2022-12-29T15:09:24;15.00;;;12.00;;
65822;SDS011;52585;47.566;19.056;2022-12-29T15:15:22;28.30;;;16.00;;
65822;SDS011;52585;47.566;19.056;2022-12-29T15:17:50;21.70;;;15.10;;
65822;SDS011;52585;47.566;19.056;2022-12-29T15:20:28;22.20;;;14.50;;
65822;SDS011;52585;47.566;19.056;2022-12-29T15:23:22;14.50;;;12.20;;
65822;SDS011;52585;47.566;19.056;2022-12-29T15:25:54;17.60;;;12.40;;
65822;SDS011;52585;47.566;19.056;2022-12-29T15:28:22;16.80;;;12.20;;
65822;SDS011;52585;47.566;19.056;2022-12-29T15:30:57;18.00;;;12.60;;
65822;SDS011;52585;47.566;19.056;2022-12-29T15:33:29;18.60;;;12.80;;
65822;SDS011;52585;47.566;19.056;2022-12-29T15:35:56;16.80;;;12.50;;
65822;SDS011;52585;47.566;19.056;2022-12-29T15:38:29;15.60;;;12.50;;
65822;SDS011;52585;47.566;19.056;2022-12-29T15:44:16;16.90;;;12.00;;
65822;SDS011;52585;47.566;19.056;2022-12-29T15:46:46;15.30;;;11.80;;
65822;SDS011;52585;47.566;19.056;2022-12-29T15:49:14;20.50;;;14.90;;
65822;SDS011;52585;47.566;19.056;2022-12-29T15:51:41;24.20;;;16.70;;
65822;SDS011;52585;47.566;19.056;2022-12-29T15:54:30;21.90;;;15.70;;
65822;SDS011;52585;47.566;19.056;2022-12-29T15:56:57;18.90;;;13.40;;
65822;SDS011;52585;47.566;19.056;2022-12-29T15:59:23;18.80;;;13.10;;
65822;SDS011;52585;47.566;19.056;2022-12-29T16:01:53;17.60;;;13.00;;
65822;SDS011;52585;47.566;19.056;2022-12-29T16:04:26;17.80;;;12.70;;
65822;SDS011;52585;47.566;19.056;2022-12-29T16:07:03;18.40;;;13.00;;
65822;SDS011;52585;47.566;19.056;2022-12-29T16:12:06;18.10;;;13.60;;
65822;SDS011;52585;47.566;19.056;2022-12-29T16:14:59;16.00;;;12.30;;
65822;SDS011;52585;47.566;19.056;2022-12-29T16:17:30;16.90;;;12.20;;
65822;SDS011;52585;47.566;19.056;2022-12-29T16:20:19;23.30;;;16.00;;
65822;SDS011;52585;47.566;19.056;2022-12-29T16:22:54;26.50;;;16.90;;
65822;SDS011;52585;47.566;19.056;2022-12-29T16:25:33;23.60;;;16.90;;
65822;SDS011;52585;47.566;19.056;2022-12-29T16:28:34;21.70;;;15.60;;
65822;SDS011;52585;47.566;19.056;2022-12-29T16:31:06;18.60;;;12.90;;
65822;SDS011;52585;47.566;19.056;2022-12-29T16:33:52;19.30;;;14.40;;
65822;SDS011;52585;47.566;19.056;2022-12-29T16:36:31;23.40;;;15.20;;
65822;SDS011;52585;47.566;19.056;2022-12-29T16:41:50;20.40;;;15.40;;
65822;SDS011;52585;47.566;19.056;2022-12-29T16:44:24;23.00;;;16.90;;
65822;SDS011;52585;47.566;19.056;2022-12-29T16:47:02;23.90;;;16.10;;
65822;SDS011;52585;47.566;19.056;2022-12-29T16:49:36;20.70;;;14.80;;
65822;SDS011;52585;47.566;19.056;2022-12-29T16:52:33;28.50;;;18.00;;
65822;SDS011;52585;47.566;19.056;2022-12-29T16:55:00;31.20;;;18.20;;
65822;SDS011;52585;47.566;19.056;2022-12-29T16:57:35;26.10;;;17.80;;
65822;SDS011;52585;47.566;19.056;2022-12-29T17:00:07;25.40;;;16.90;;
65822;SDS011;52585;47.566;19.056;2022-12-29T17:02:42;23.00;;;15.80;;
65822;SDS011;52585;47.566;19.056;2022-12-29T17:05:15;21.50;;;15.80;;
65822;SDS011;52585;47.566;19.056;2022-12-29T17:07:42;21.40;;;15.20;;
65822;SDS011;52585;47.566;19.056;2022-12-29T17:10:09;21.00;;;14.50;;
65822;SDS011;52585;47.566;19.056;2022-12-29T17:12:38;20.80;;;15.20;;
65822;SDS011;52585;47.566;19.056;2022-12-29T17:15:18;21.60;;;15.10;;
65822;SDS011;52585;47.566;19.056;2022-12-29T17:17:51;21.00;;;15.00;;
65822;SDS011;52585;47.566;19.056;2022-12-29T17:22:48;31.70;;;19.50;;
65822;SDS011;52585;47.566;19.056;2022-12-29T17:25:19;32.30;;;19.30;;
65822;SDS011;52585;47.566;19.056;2022-12-29T17:27:50;29.50;;;18.60;;
65822;SDS011;52585;47.566;19.056;2022-12-29T17:30:19;23.50;;;16.10;;
65822;SDS011;52585;47.566;19.056;2022-12-29T17:32:59;23.60;;;16.20;;
65822;SDS011;52585;47.566;19.056;2022-12-29T17:35:27;21.80;;;14.80;;